createdAt,value
2023-03-24T00:01:19.367Z,1.60
2023-03-24T00:03:48.663Z,1.20
2023-03-24T00:06:15.767Z,1.42
2023-03-24T00:08:43.923Z,1.25
2023-03-24T00:11:12.296Z,1.73
2023-03-24T00:13:40.178Z,1.35
2023-03-24T00:16:14.292Z,1.10
2023-03-24T00:18:41.983Z,1.23
2023-03-24T00:21:11.584Z,1.33
2023-03-24T00:23:42.611Z,1.38
2023-03-24T00:26:15.146Z,1.73
2023-03-24T00:28:45.556Z,1.38
2023-03-24T00:31:14.874Z,2.28
2023-03-24T00:33:44.131Z,1.58
2023-03-24T00:36:12.198Z,1.58
2023-03-24T00:38:41.337Z,1.25
2023-03-24T00:41:10.725Z,1.25
2023-03-24T00:43:38.152Z,1.30
2023-03-24T00:46:12.153Z,0.75
2023-03-24T00:48:41.939Z,1.10
2023-03-24T00:51:10.872Z,1.17
2023-03-24T00:53:43.442Z,1.10
2023-03-24T00:56:11.624Z,1.42
2023-03-24T00:58:39.151Z,1.10
2023-03-24T01:01:06.823Z,1.10
2023-03-24T01:03:35.097Z,1.30
2023-03-24T01:06:04.957Z,1.17
2023-03-24T01:08:31.948Z,1.10
2023-03-24T01:11:01.268Z,1.00
2023-03-24T01:13:29.907Z,1.10
2023-03-24T01:15:57.820Z,1.05
2023-03-24T01:18:24.926Z,1.05
2023-03-24T01:20:53.610Z,1.27
2023-03-24T01:23:24.452Z,1.05
2023-03-24T01:25:52.709Z,0.80
2023-03-24T01:28:24.782Z,1.23
2023-03-24T01:30:52.637Z,0.80
2023-03-24T01:33:20.929Z,0.93
2023-03-24T01:35:48.258Z,0.95
2023-03-24T01:38:15.787Z,0.70
2023-03-24T01:40:47.293Z,1.27
2023-03-24T01:43:27.107Z,0.60
2023-03-24T01:46:21.323Z,1.17
2023-03-24T01:49:01.686Z,0.90
2023-03-24T01:51:36.966Z,0.70
2023-03-24T01:54:27.529Z,0.60
2023-03-24T01:57:04.926Z,1.08
2023-03-24T01:59:38.207Z,1.02
2023-03-24T02:02:14.935Z,0.95
2023-03-24T02:05:01.055Z,1.05
2023-03-24T02:08:06.207Z,0.82
2023-03-24T02:10:35.539Z,1.05
2023-03-24T02:13:04.619Z,1.23
2023-03-24T02:15:34.205Z,1.10
2023-03-24T02:18:44.955Z,1.02
2023-03-24T02:21:59.353Z,0.93
2023-03-24T02:25:08.323Z,0.95
2023-03-24T02:27:48.784Z,1.27
2023-03-24T02:30:52.993Z,0.70
2023-03-24T02:34:04.624Z,0.88
2023-03-24T02:36:50.960Z,0.93
2023-03-24T02:39:43.017Z,1.00
2023-03-24T02:42:14.292Z,0.80
2023-03-24T02:45:07.367Z,1.25
2023-03-24T02:48:19.976Z,0.90
2023-03-24T02:51:35.021Z,1.25
2023-03-24T02:54:19.051Z,1.30
2023-03-24T02:57:11.914Z,1.05
2023-03-24T03:00:32.359Z,1.05
2023-03-24T03:03:31.555Z,1.00
2023-03-24T03:06:07.123Z,1.25
2023-03-24T03:08:36.114Z,1.10
2023-03-24T03:11:07.135Z,1.33
2023-03-24T03:14:01.395Z,0.90
2023-03-24T03:16:46.546Z,0.90
2023-03-24T03:19:32.187Z,0.65
2023-03-24T03:21:59.695Z,0.68
2023-03-24T03:24:40.771Z,1.10
2023-03-24T03:27:18.942Z,0.88
2023-03-24T03:29:56.486Z,0.70
2023-03-24T03:32:34.938Z,0.57
2023-03-24T03:35:08.806Z,0.75
2023-03-24T03:37:57.732Z,0.70
2023-03-24T03:40:36.807Z,0.70
2023-03-24T03:43:11.954Z,0.80
2023-03-24T03:45:39.065Z,0.55
2023-03-24T03:48:06.548Z,0.80
2023-03-24T03:50:34.158Z,1.00
2023-03-24T03:53:07.641Z,0.80
2023-03-24T03:55:35.498Z,0.70
2023-03-24T03:58:04.664Z,1.08
2023-03-24T04:00:45.355Z,0.70
2023-03-24T04:04:53.318Z,0.75
2023-03-24T04:08:06.402Z,0.63
2023-03-24T04:11:36.115Z,0.50
2023-03-24T04:14:44.518Z,0.82
2023-03-24T04:18:22.526Z,0.43
2023-03-24T04:21:43.028Z,0.85
2023-03-24T04:24:37.810Z,0.55
2023-03-24T04:27:46.522Z,0.73
2023-03-24T04:30:40.909Z,0.90
2023-03-24T04:33:43.970Z,0.70
2023-03-24T04:36:34.467Z,1.15
2023-03-24T04:39:28.951Z,0.50
2023-03-24T04:42:04.064Z,0.80
2023-03-24T04:44:33.515Z,0.80
2023-03-24T04:47:21.353Z,0.85
2023-03-24T04:50:11.189Z,0.88
2023-03-24T04:52:40.030Z,0.88
2023-03-24T04:55:46.199Z,1.10
2023-03-24T04:58:13.313Z,0.50
2023-03-24T05:00:44.263Z,0.90
2023-03-24T05:03:14.954Z,0.83
2023-03-24T05:05:48.262Z,0.82
2023-03-24T05:08:17.079Z,0.80
2023-03-24T05:10:44.471Z,0.77
2023-03-24T05:13:12.678Z,0.98
2023-03-24T05:15:53.995Z,0.63
2023-03-24T05:18:29.538Z,0.98
2023-03-24T05:20:57.937Z,0.50
2023-03-24T05:23:25.679Z,0.60
2023-03-24T05:25:53.544Z,0.50
2023-03-24T05:28:23.902Z,0.80
2023-03-24T05:30:53.627Z,0.63
2023-03-24T05:33:46.747Z,0.50
2023-03-24T05:36:17.651Z,0.98
2023-03-24T05:38:53.498Z,0.85
2023-03-24T05:41:21.093Z,0.20
2023-03-24T05:43:48.051Z,0.45
2023-03-24T05:46:16.767Z,1.20
2023-03-24T05:48:46.802Z,0.47
2023-03-24T05:51:18.920Z,1.00
2023-03-24T05:53:52.142Z,1.30
2023-03-24T05:56:40.926Z,1.23
2023-03-24T05:59:27.126Z,1.50
2023-03-24T06:02:12.863Z,1.75
2023-03-24T06:05:01.409Z,0.95
2023-03-24T06:07:30.431Z,1.17
2023-03-24T06:10:02.846Z,1.08
2023-03-24T06:12:36.204Z,1.10
2023-03-24T06:15:05.278Z,1.00
2023-03-24T06:17:33.854Z,1.50
2023-03-24T06:20:14.909Z,1.00
2023-03-24T06:23:00.060Z,1.45
2023-03-24T06:25:33.630Z,1.60
2023-03-24T06:28:15.213Z,1.42
2023-03-24T06:30:46.764Z,1.23
2023-03-24T06:33:19.109Z,1.25
2023-03-24T06:35:46.604Z,1.30
2023-03-24T06:38:16.886Z,1.58
2023-03-24T06:40:45.977Z,1.42
2023-03-24T06:43:13.791Z,1.40
2023-03-24T06:45:45.741Z,1.63
2023-03-24T06:48:19.741Z,1.52
2023-03-24T06:50:47.748Z,1.90
2023-03-24T06:53:14.675Z,1.27
2023-03-24T06:55:42.300Z,1.23
2023-03-24T06:58:10.968Z,1.50
2023-03-24T07:00:48.404Z,1.38
2023-03-24T07:03:32.799Z,1.25
2023-03-24T07:06:29.815Z,1.08
2023-03-24T07:09:02.656Z,1.10
2023-03-24T07:11:31.496Z,1.30
2023-03-24T07:14:00.735Z,1.50
2023-03-24T07:16:29.688Z,1.48
2023-03-24T07:19:16.160Z,1.35
2023-03-24T07:21:50.023Z,2.08
2023-03-24T07:24:21.532Z,2.60
2023-03-24T07:27:04.077Z,1.30
2023-03-24T07:29:31.771Z,1.38
2023-03-24T07:32:21.246Z,1.65
2023-03-24T07:34:49.680Z,0.90
2023-03-24T07:37:17.268Z,1.60
2023-03-24T07:39:44.572Z,1.20
2023-03-24T07:42:13.168Z,1.30
2023-03-24T07:45:00.537Z,1.50
2023-03-24T07:47:29.201Z,1.50
2023-03-24T07:49:56.818Z,1.30
2023-03-24T07:52:23.905Z,1.88
2023-03-24T07:54:53.122Z,1.30
2023-03-24T07:57:46.649Z,1.02
2023-03-24T08:00:18.169Z,1.02
2023-03-24T08:02:54.576Z,1.95
2023-03-24T08:05:40.590Z,1.27
2023-03-24T08:08:31.598Z,1.67
2023-03-24T08:10:58.660Z,1.50
2023-03-24T08:13:26.603Z,2.05
2023-03-24T08:15:54.374Z,1.52
2023-03-24T08:18:24.177Z,2.35
2023-03-24T08:20:57.152Z,1.55
2023-03-24T08:23:25.084Z,1.52
2023-03-24T08:25:52.555Z,1.70
2023-03-24T08:28:20.141Z,1.60
2023-03-24T08:30:48.127Z,1.98
2023-03-24T08:33:16.627Z,1.85
2023-03-24T08:35:46.691Z,1.48
2023-03-24T08:38:18.111Z,1.85
2023-03-24T08:40:45.993Z,1.15
2023-03-24T08:43:15.656Z,1.25
2023-03-24T08:45:43.193Z,1.40
2023-03-24T08:48:10.709Z,1.65
2023-03-24T08:50:41.832Z,1.42
2023-03-24T08:53:11.707Z,0.95
2023-03-24T08:55:42.448Z,1.33
2023-03-24T08:58:23.126Z,1.83
2023-03-24T09:00:50.622Z,1.60
2023-03-24T09:03:22.471Z,1.60
2023-03-24T09:05:50.740Z,1.90
2023-03-24T09:08:19.521Z,1.20
2023-03-24T09:10:47.022Z,1.63
2023-03-24T09:13:15.405Z,1.25
2023-03-24T09:15:57.648Z,1.20
2023-03-24T09:18:25.980Z,1.63
2023-03-24T09:20:53.975Z,1.50
2023-03-24T09:23:22.138Z,1.35
2023-03-24T09:25:53.761Z,1.60
2023-03-24T09:28:22.131Z,0.88
2023-03-24T09:30:49.978Z,1.55
2023-03-24T09:33:17.610Z,1.80
2023-03-24T09:35:45.043Z,1.65
2023-03-24T09:38:12.795Z,1.60
2023-03-24T09:40:42.587Z,1.50
2023-03-24T09:43:33.683Z,1.85
2023-03-24T09:46:04.905Z,1.52
2023-03-24T09:48:42.281Z,1.25
2023-03-24T09:51:28.753Z,1.75
2023-03-24T09:53:56.389Z,1.40
2023-03-24T09:56:24.076Z,1.60
2023-03-24T09:59:04.203Z,1.73
2023-03-24T10:01:31.593Z,1.05
2023-03-24T10:04:00.132Z,1.35
2023-03-24T10:06:38.922Z,1.70
2023-03-24T10:09:17.422Z,1.48
2023-03-24T10:12:07.423Z,1.48
2023-03-24T10:14:52.408Z,1.10
2023-03-24T10:17:54.516Z,0.90
2023-03-24T10:20:53.019Z,1.88
2023-03-24T10:24:02.268Z,1.40
2023-03-24T10:26:45.706Z,1.30
2023-03-24T10:29:35.265Z,0.93
2023-03-24T10:32:15.830Z,1.27
2023-03-24T10:34:46.016Z,1.17
2023-03-24T10:37:16.277Z,1.13
2023-03-24T10:39:45.089Z,1.00
2023-03-24T10:42:25.595Z,1.05
2023-03-24T10:44:53.416Z,1.25
2023-03-24T10:47:27.866Z,0.93
2023-03-24T10:50:11.906Z,1.48
2023-03-24T10:52:43.719Z,1.00
2023-03-24T10:55:19.656Z,0.90
2023-03-24T10:57:54.307Z,0.80
2023-03-24T11:00:26.819Z,0.90
2023-03-24T11:03:08.351Z,1.33
2023-03-24T11:05:39.025Z,0.80
2023-03-24T11:08:29.861Z,0.70
2023-03-24T11:10:56.839Z,0.60
2023-03-24T11:13:25.022Z,1.00
2023-03-24T11:16:14.067Z,1.15
2023-03-24T11:19:05.335Z,1.50
2023-03-24T11:21:36.432Z,0.93
2023-03-24T11:24:12.837Z,0.80
2023-03-24T11:26:41.938Z,0.60
2023-03-24T11:29:24.135Z,0.68
2023-03-24T11:32:03.561Z,0.68
2023-03-24T11:34:38.782Z,0.57
2023-03-24T11:37:14.569Z,0.88
2023-03-24T11:39:41.509Z,0.85
2023-03-24T11:42:12.032Z,0.50
2023-03-24T11:44:39.566Z,0.50
2023-03-24T11:47:33.805Z,0.43
2023-03-24T11:50:09.829Z,0.63
2023-03-24T11:52:42.589Z,0.43
2023-03-24T11:55:37.321Z,0.50
2023-03-24T11:58:41.679Z,0.40
2023-03-24T12:01:20.795Z,0.40
2023-03-24T12:04:36.480Z,0.30
2023-03-24T12:07:43.375Z,0.40
2023-03-24T12:10:22.065Z,0.60
2023-03-24T12:13:31.702Z,0.70
2023-03-24T12:16:33.823Z,0.40
2023-03-24T12:19:45.923Z,0.75
2023-03-24T12:22:13.188Z,0.60
2023-03-24T12:25:08.958Z,0.40
2023-03-24T12:28:09.375Z,0.52
2023-03-24T12:31:23.655Z,0.40
2023-03-24T12:33:51.140Z,0.45
2023-03-24T12:36:41.488Z,0.30
2023-03-24T12:39:17.297Z,0.40
2023-03-24T12:42:10.975Z,0.35
2023-03-24T12:45:27.762Z,0.20
2023-03-24T12:48:30.005Z,0.50
2023-03-24T12:51:20.825Z,0.38
2023-03-24T12:54:03.222Z,0.30
2023-03-24T12:56:47.862Z,0.30
2023-03-24T12:59:24.036Z,0.20
2023-03-24T13:01:56.674Z,0.32
2023-03-24T13:04:32.906Z,0.20
2023-03-24T13:07:06.713Z,0.10
2023-03-24T13:09:43.949Z,0.15
2023-03-24T13:12:18.678Z,0.20
2023-03-24T13:15:00.142Z,0.32
2023-03-24T13:17:39.333Z,0.40
2023-03-24T13:20:13.601Z,0.20
2023-03-24T13:22:41.474Z,0.30
2023-03-24T13:25:32.189Z,0.20
2023-03-24T13:28:05.861Z,0.35
2023-03-24T13:30:41.154Z,0.28
2023-03-24T13:33:16.939Z,0.35
2023-03-24T13:36:11.729Z,0.35
2023-03-24T13:38:47.439Z,0.60
2023-03-24T13:41:21.244Z,0.20
2023-03-24T13:43:52.075Z,0.85
2023-03-24T13:46:19.785Z,0.50
2023-03-24T13:48:58.373Z,0.60
2023-03-24T13:51:34.758Z,0.60
2023-03-24T13:54:26.160Z,0.60
2023-03-24T13:56:55.756Z,0.20
2023-03-24T13:59:41.087Z,1.17
2023-03-24T14:02:55.427Z,0.40
2023-03-24T14:05:22.388Z,0.47
2023-03-24T14:07:51.797Z,0.30
2023-03-24T14:10:20.807Z,1.02
2023-03-24T14:13:02.016Z,0.40
2023-03-24T14:15:45.922Z,0.30
2023-03-24T14:18:25.527Z,0.30
2023-03-24T14:21:03.781Z,0.50
2023-03-24T14:23:46.013Z,0.50
2023-03-24T14:28:58.248Z,0.40
2023-03-24T14:31:34.581Z,0.57
2023-03-24T14:34:15.725Z,0.65
2023-03-24T14:36:45.082Z,0.47
2023-03-24T14:39:32.239Z,0.25
2023-03-24T14:41:59.814Z,0.60
2023-03-24T14:44:52.461Z,0.70
2023-03-24T14:47:30.691Z,0.55
2023-03-24T14:49:59.519Z,0.40
2023-03-24T14:52:37.399Z,0.50
2023-03-24T14:55:19.424Z,0.57
2023-03-24T14:57:56.808Z,0.25
2023-03-24T15:00:40.487Z,0.65
2023-03-24T15:03:49.739Z,0.50
2023-03-24T15:06:19.758Z,0.52
2023-03-24T15:08:58.617Z,0.45
2023-03-24T15:11:35.051Z,0.40
2023-03-24T15:14:25.137Z,0.60
2023-03-24T15:17:06.381Z,0.65
2023-03-24T15:19:34.166Z,0.38
2023-03-24T15:22:05.772Z,0.45
2023-03-24T15:24:36.993Z,0.40
2023-03-24T15:27:07.495Z,0.60
2023-03-24T15:29:40.641Z,0.60
2023-03-24T15:32:15.357Z,0.60
2023-03-24T15:34:50.105Z,0.32
2023-03-24T15:37:41.495Z,0.40
2023-03-24T15:40:30.503Z,1.67
2023-03-24T15:43:01.112Z,0.60
2023-03-24T15:45:30.443Z,0.85
2023-03-24T15:47:58.881Z,0.35
2023-03-24T15:50:35.728Z,0.68
2023-03-24T15:53:17.633Z,0.40
2023-03-24T15:55:45.216Z,0.32
2023-03-24T15:58:28.405Z,0.40
2023-03-24T16:01:00.973Z,0.80
2023-03-24T16:03:30.312Z,1.00
2023-03-24T16:05:57.965Z,0.88
2023-03-24T16:08:39.191Z,0.90
2023-03-24T16:11:12.694Z,0.70
2023-03-24T16:13:45.620Z,0.50
2023-03-24T16:16:23.235Z,0.50
2023-03-24T16:18:51.237Z,0.30
2023-03-24T16:21:26.904Z,0.75
2023-03-24T16:23:56.939Z,0.30
2023-03-24T16:26:26.293Z,0.85
2023-03-24T16:29:16.115Z,0.52
2023-03-24T16:31:44.177Z,0.30
2023-03-24T16:34:11.536Z,0.43
2023-03-24T16:36:38.861Z,0.50
2023-03-24T16:39:18.015Z,0.50
2023-03-24T16:41:46.319Z,0.60
2023-03-24T16:44:13.913Z,0.45
2023-03-24T16:46:41.687Z,0.22
2023-03-24T16:49:14.697Z,0.40
2023-03-24T16:51:44.392Z,0.60
2023-03-24T16:54:11.817Z,0.45
2023-03-24T16:56:39.690Z,0.10
2023-03-24T16:59:08.154Z,0.43
2023-03-24T17:01:45.859Z,0.50
2023-03-24T17:04:22.212Z,0.20
2023-03-24T17:06:55.362Z,0.75
2023-03-24T17:09:23.027Z,0.38
2023-03-24T17:11:58.422Z,0.40
2023-03-24T17:14:25.937Z,0.73
2023-03-24T17:16:53.709Z,0.20
2023-03-24T17:19:23.631Z,0.35
2023-03-24T17:22:02.918Z,0.30
2023-03-24T17:24:36.008Z,0.30
2023-03-24T17:27:04.019Z,0.57
2023-03-24T17:29:31.622Z,0.30
2023-03-24T17:32:01.233Z,0.47
2023-03-24T17:34:28.708Z,0.50
2023-03-24T17:36:56.014Z,0.63
2023-03-24T17:39:23.549Z,0.50
2023-03-24T17:41:51.010Z,0.50
2023-03-24T17:44:18.309Z,0.75
2023-03-24T17:46:45.269Z,0.57
2023-03-24T17:49:12.656Z,0.47
2023-03-24T17:51:40.024Z,0.50
2023-03-24T17:54:12.976Z,0.20
2023-03-24T17:56:40.814Z,0.57
2023-03-24T17:59:11.042Z,0.52
2023-03-24T18:01:40.527Z,0.63
2023-03-24T18:04:26.493Z,0.80
2023-03-24T18:06:58.287Z,0.60
2023-03-24T18:09:35.725Z,0.60
2023-03-24T18:12:06.393Z,0.70
2023-03-24T18:14:37.063Z,0.43
2023-03-24T18:17:06.954Z,0.60
2023-03-24T18:19:46.224Z,0.50
2023-03-24T18:22:14.178Z,1.20
2023-03-24T18:24:41.779Z,0.85
2023-03-24T18:27:09.905Z,0.90
2023-03-24T18:29:38.102Z,0.52
2023-03-24T18:32:06.252Z,0.70
2023-03-24T18:34:33.808Z,0.77
2023-03-24T18:37:01.643Z,0.70
2023-03-24T18:39:29.096Z,1.13
2023-03-24T18:41:56.581Z,1.02
2023-03-24T18:44:24.065Z,0.80
2023-03-24T18:46:51.524Z,0.70
2023-03-24T18:49:19.057Z,0.55
2023-03-24T18:51:46.758Z,0.60
2023-03-24T18:54:14.152Z,0.50
2023-03-24T18:56:41.804Z,0.68
2023-03-24T18:59:09.393Z,0.55
2023-03-24T19:01:36.797Z,0.60
2023-03-24T19:04:04.577Z,0.57
2023-03-24T19:06:34.386Z,0.60
2023-03-24T19:09:02.392Z,0.50
2023-03-24T19:11:29.891Z,0.55
2023-03-24T19:14:00.823Z,0.70
2023-03-24T19:16:28.655Z,0.57
2023-03-24T19:19:00.017Z,0.77
2023-03-24T19:21:27.787Z,0.95
2023-03-24T19:23:57.097Z,0.60
2023-03-24T19:26:24.611Z,1.00
2023-03-24T19:28:52.092Z,0.70
2023-03-24T19:31:20.967Z,0.80
2023-03-24T19:33:48.732Z,0.90
2023-03-24T19:36:16.161Z,0.47
2023-03-24T19:38:44.194Z,0.60
2023-03-24T19:41:14.877Z,0.50
2023-03-24T19:43:42.645Z,0.88
2023-03-24T19:46:10.194Z,0.70
2023-03-24T19:48:37.544Z,0.77
2023-03-24T19:51:05.130Z,0.68
2023-03-24T19:53:33.637Z,1.10
2023-03-24T19:56:01.366Z,0.43
2023-03-24T19:58:28.935Z,0.88
2023-03-24T20:00:56.764Z,0.70
2023-03-24T20:03:24.647Z,0.65
2023-03-24T20:05:52.512Z,0.70
2023-03-24T20:08:20.617Z,0.85
2023-03-24T20:10:47.993Z,0.85
2023-03-24T20:13:15.373Z,1.20
2023-03-24T20:15:42.855Z,0.50
2023-03-24T20:18:10.698Z,0.73
2023-03-24T20:20:38.252Z,0.70
2023-03-24T20:23:06.544Z,0.80
2023-03-24T20:25:33.920Z,1.10
2023-03-24T20:28:01.848Z,0.63
2023-03-24T20:30:31.029Z,0.60
2023-03-24T20:32:58.476Z,0.98
2023-03-24T20:35:27.931Z,0.52
2023-03-24T20:37:55.730Z,0.57
2023-03-24T20:40:24.682Z,0.50
2023-03-24T20:42:51.681Z,0.98
2023-03-24T20:45:19.611Z,0.90
2023-03-24T20:47:47.143Z,0.50
2023-03-24T20:50:14.596Z,0.80
2023-03-24T20:52:42.176Z,0.55
2023-03-24T20:55:13.332Z,0.77
2023-03-24T20:57:41.456Z,0.73
2023-03-24T21:00:13.925Z,0.65
2023-03-24T21:02:44.515Z,0.70
2023-03-24T21:05:11.929Z,0.50
2023-03-24T21:07:43.488Z,0.82
2023-03-24T21:10:11.092Z,0.45
2023-03-24T21:12:52.437Z,0.40
2023-03-24T21:15:24.749Z,0.70
2023-03-24T21:17:52.901Z,0.70
2023-03-24T21:20:20.880Z,0.73
2023-03-24T21:22:55.736Z,0.85
2023-03-24T21:25:29.038Z,0.70
2023-03-24T21:27:58.908Z,0.70
2023-03-24T21:30:29.862Z,0.90
2023-03-24T21:32:57.837Z,0.57
2023-03-24T21:35:25.186Z,0.43
2023-03-24T21:37:53.959Z,0.95
2023-03-24T21:40:24.939Z,0.50
2023-03-24T21:42:53.702Z,0.40
2023-03-24T21:45:23.205Z,0.47
2023-03-24T21:47:51.062Z,0.80
2023-03-24T21:50:23.385Z,0.40
2023-03-24T21:52:53.139Z,0.65
2023-03-24T21:55:21.213Z,0.77
2023-03-24T21:57:49.960Z,0.50
2023-03-24T22:00:21.312Z,0.57
2023-03-24T22:02:51.482Z,0.60
2023-03-24T22:05:24.433Z,0.80
2023-03-24T22:07:52.768Z,0.60
2023-03-24T22:10:24.627Z,0.70
2023-03-24T22:12:56.378Z,0.80
2023-03-24T22:15:26.251Z,0.50
2023-03-24T22:17:53.873Z,0.50
2023-03-24T22:20:21.611Z,0.43
2023-03-24T22:22:48.912Z,1.25
2023-03-24T22:25:17.917Z,0.60
2023-03-24T22:27:46.123Z,0.75
2023-03-24T22:30:14.317Z,0.60
2023-03-24T22:32:42.161Z,0.52
2023-03-24T22:35:10.021Z,0.60
2023-03-24T22:37:37.656Z,1.10
2023-03-24T22:40:06.010Z,0.40
2023-03-24T22:42:33.467Z,0.50
2023-03-24T22:45:00.805Z,0.50
2023-03-24T22:47:29.095Z,0.40
2023-03-24T22:49:56.569Z,0.73
2023-03-24T22:52:23.988Z,1.30
2023-03-24T22:54:51.341Z,0.40
2023-03-24T22:57:18.755Z,0.47
2023-03-24T22:59:46.340Z,0.82
2023-03-24T23:02:13.784Z,0.60
2023-03-24T23:04:42.079Z,1.15
2023-03-24T23:07:10.146Z,0.60
2023-03-24T23:09:37.629Z,0.65
2023-03-24T23:12:05.410Z,0.63
2023-03-24T23:14:32.837Z,0.68
2023-03-24T23:17:00.196Z,0.40
2023-03-24T23:19:28.113Z,0.85
2023-03-24T23:21:55.407Z,0.50
2023-03-24T23:24:22.789Z,0.65
2023-03-24T23:26:50.217Z,0.77
2023-03-24T23:29:17.817Z,0.80
2023-03-24T23:31:45.623Z,0.47
2023-03-24T23:34:13.076Z,0.55
2023-03-24T23:36:44.720Z,0.52
2023-03-24T23:39:12.495Z,0.38
2023-03-24T23:41:39.876Z,0.30
2023-03-24T23:44:07.288Z,0.45
2023-03-24T23:46:34.730Z,0.40
2023-03-24T23:49:02.015Z,0.50
2023-03-24T23:51:29.421Z,0.65
2023-03-24T23:53:56.820Z,0.45
2023-03-24T23:56:24.167Z,0.30
2023-03-24T23:58:52.151Z,0.80
